Time;durP1;ratioP1;P1;durP2;ratioP2;P2;SDS_P1;SDS_P2;PMS_P1;PMS_P2;Temp;Humidity;BMP_temperature;BMP_pressure;BME280_temperature;BME280_humidity;BME280_pressure;Samples;Min_cycle;Max_cycle;Signal;HPM_P1;HPM_P2
2022/03/09 00:02:19;;;;;;;;;;;;;;;8.89;29.93;100098.37;4487150;31;35425;-63
2022/03/09 00:04:48;;;;;;;;;;;;;;;8.70;29.86;100084.47;4486107;31;34170;-62
2022/03/09 00:07:16;;;;;;;;;;;;;;;8.79;30.04;100090.09;4490512;31;33247;-62
2022/03/09 00:09:46;;;;;;;;;;;;;;;8.72;30.54;100085.25;4491221;31;34252;-62
2022/03/09 00:12:15;;;;;;;;;;;;;;;8.72;30.35;100094.09;4489216;31;34149;-62
2022/03/09 00:14:45;;;;;;;;;;;;;;;8.66;30.45;100096.28;4488986;31;34002;-63
2022/03/09 00:17:14;;;;;;;;;;;;;;;8.50;30.51;100099.88;4487013;31;34092;-64
2022/03/09 00:19:44;;;;;;;;;;;;;;;8.56;30.44;100102.19;4486496;31;34158;-62
2022/03/09 00:22:12;;;;;;;;;;;;;;;8.85;29.91;100104.87;4485762;31;33830;-62
2022/03/09 00:24:44;;;;;;;;;;;;;;;8.97;29.46;100092.59;4489183;31;33189;-64
2022/03/09 00:27:13;;;;;;;;;;;;;;;8.62;30.30;100098.28;4484716;31;31643;-62
2022/03/09 00:29:42;;;;;;;;;;;;;;;8.84;30.22;100098.69;4485151;31;33988;-62
2022/03/09 00:32:11;;;;;;;;;;;;;;;8.50;30.35;100104.38;4489286;31;33254;-62
2022/03/09 00:34:40;;;;;;;;;;;;;;;8.78;29.79;100104.41;4489037;31;33754;-63
2022/03/09 00:37:09;;;;;;;;;;;;;;;8.94;29.30;100093.63;4473287;31;33396;-65
2022/03/09 00:39:38;;;;;;;;;;;;;;;8.94;29.53;100098.97;4490673;31;35196;-65
2022/03/09 00:42:07;;;;;;;;;;;;;;;8.98;29.37;100105.81;4488330;31;34322;-64
2022/03/09 00:44:36;;;;;;;;;;;;;;;8.22;30.81;100099.78;4486919;31;35181;-64
2022/03/09 00:47:06;;;;;;;;;;;;;;;8.39;30.18;100094.34;4490014;31;31874;-62
2022/03/09 00:49:38;;;;;;;;;;;;;;;8.42;30.85;100096.00;4483798;31;32735;-63
2022/03/09 00:52:06;;;;;;;;;;;;;;;8.50;30.02;100094.53;4485409;31;34310;-62
2022/03/09 00:54:39;;;;;;;;;;;;;;;8.62;29.90;100092.94;4483368;31;31976;-62
2022/03/09 00:57:09;;;;;;;;;;;;;;;8.60;30.64;100081.50;4490863;31;32557;-62
2022/03/09 00:59:40;;;;;;;;;;;;;;;8.71;30.11;100087.06;4488320;31;35096;-65
2022/03/09 01:02:09;;;;;;;;;;;;;;;8.76;29.75;100089.44;4475600;31;34153;-63
2022/03/09 01:04:38;;;;;;;;;;;;;;;8.11;31.25;100082.62;4492823;31;34325;-63
2022/03/09 01:07:08;;;;;;;;;;;;;;;7.99;31.78;100074.50;4486244;31;33516;-62
2022/03/09 01:09:38;;;;;;;;;;;;;;;8.26;31.22;100074.69;4491085;31;34011;-62
2022/03/09 01:12:07;;;;;;;;;;;;;;;8.35;31.27;100076.78;4487389;31;33992;-62
2022/03/09 01:14:35;;;;;;;;;;;;;;;8.55;30.33;100071.13;4492293;31;35467;-65
2022/03/09 01:17:04;;;;;;;;;;;;;;;8.81;30.21;100066.00;4487366;31;34103;-63
2022/03/09 01:19:33;;;;;;;;;;;;;;;8.88;29.64;100061.97;4488666;31;33361;-62
2022/03/09 01:22:02;;;;;;;;;;;;;;;8.38;31.31;100060.63;4490799;31;33334;-63
2022/03/09 01:24:30;;;;;;;;;;;;;;;8.34;30.96;100064.37;4490751;31;35232;-62
2022/03/09 01:27:00;;;;;;;;;;;;;;;8.66;30.21;100061.59;4487634;31;33636;-61
2022/03/09 01:29:29;;;;;;;;;;;;;;;8.81;29.75;100071.34;4491586;31;32838;-64
2022/03/09 01:31:57;;;;;;;;;;;;;;;8.64;30.07;100059.03;4487145;31;34425;-62
2022/03/09 01:34:25;;;;;;;;;;;;;;;8.45;30.37;100066.47;4487557;31;35200;-64
2022/03/09 01:36:55;;;;;;;;;;;;;;;8.51;30.16;100064.28;4486823;31;32241;-64
2022/03/09 01:39:24;;;;;;;;;;;;;;;8.57;29.89;100055.91;4486393;31;33214;-63
2022/03/09 01:41:53;;;;;;;;;;;;;;;8.58;29.88;100062.09;4489185;31;34177;-63
2022/03/09 01:44:23;;;;;;;;;;;;;;;8.55;29.53;100071.13;4493258;31;34170;-64
2022/03/09 01:46:53;;;;;;;;;;;;;;;8.40;30.11;100074.72;4498335;31;32199;-62
2022/03/09 01:49:22;;;;;;;;;;;;;;;8.51;30.23;100080.28;4479383;31;35018;-64
2022/03/09 01:51:57;;;;;;;;;;;;;;;8.38;30.45;100085.50;4495072;31;34461;-63
2022/03/09 01:54:28;;;;;;;;;;;;;;;8.09;30.37;100087.22;4493570;31;35166;-63
2022/03/09 01:56:56;;;;;;;;;;;;;;;7.52;31.86;100081.63;4499765;31;34292;-63
2022/03/09 01:59:26;;;;;;;;;;;;;;;7.64;31.13;100091.59;4495502;31;33151;-63
2022/03/09 02:01:57;;;;;;;;;;;;;;;7.67;31.02;100091.41;4492612;31;32745;-62
2022/03/09 02:04:27;;;;;;;;;;;;;;;7.56;31.31;100092.97;4494768;31;32287;-63
2022/03/09 02:06:56;;;;;;;;;;;;;;;7.55;31.91;100096.59;4489561;31;33573;-63
2022/03/09 02:12:15;;;;;;;;;;;;;;;7.00;33.86;100090.72;4495798;31;35323;-62
2022/03/09 02:14:47;;;;;;;;;;;;;;;6.58;35.08;100098.31;4491842;31;33090;-62
2022/03/09 02:17:16;;;;;;;;;;;;;;;7.04;33.78;100099.41;4492968;31;32150;-62
2022/03/09 02:19:48;;;;;;;;;;;;;;;6.71;34.56;100099.41;4492678;31;32899;-62
2022/03/09 02:22:19;;;;;;;;;;;;;;;7.70;32.84;100095.69;4499371;31;34328;-62
2022/03/09 02:24:48;;;;;;;;;;;;;;;7.90;31.37;100087.41;4494162;31;34229;-61
2022/03/09 02:27:17;;;;;;;;;;;;;;;7.74;32.69;100073.28;4494629;31;33177;-62
2022/03/09 02:29:49;;;;;;;;;;;;;;;8.03;31.95;100076.06;4490485;31;34308;-63
2022/03/09 02:32:19;;;;;;;;;;;;;;;7.77;32.13;100085.53;4485267;31;33132;-63
2022/03/09 02:34:48;;;;;;;;;;;;;;;7.93;32.32;100089.91;4490054;31;33690;-63
2022/03/09 02:37:17;;;;;;;;;;;;;;;8.49;30.83;100084.00;4486552;31;32017;-65
2022/03/09 02:39:45;;;;;;;;;;;;;;;8.55;31.10;100084.47;4489259;31;34071;-62
2022/03/09 02:42:14;;;;;;;;;;;;;;;8.79;30.39;100084.75;4493176;31;33360;-63
2022/03/09 02:44:44;;;;;;;;;;;;;;;8.84;30.01;100095.16;4495241;31;34176;-63
2022/03/09 02:47:14;;;;;;;;;;;;;;;8.29;32.06;100093.16;4488283;31;31598;-62
2022/03/09 02:49:43;;;;;;;;;;;;;;;7.93;32.46;100089.06;4487070;31;33110;-64
2022/03/09 02:52:11;;;;;;;;;;;;;;;8.32;31.93;100090.31;4492826;31;34296;-64
2022/03/09 02:54:40;;;;;;;;;;;;;;;8.67;30.90;100098.88;4490298;31;35328;-62
2022/03/09 02:57:11;;;;;;;;;;;;;;;8.36;31.67;100103.34;4493290;31;33482;-63
2022/03/09 02:59:40;;;;;;;;;;;;;;;7.92;31.81;100101.50;4476545;32;34208;-63
2022/03/09 03:02:11;;;;;;;;;;;;;;;7.96;31.54;100099.53;4495295;31;35554;-64
2022/03/09 03:04:42;;;;;;;;;;;;;;;7.87;31.90;100095.59;4490787;31;34184;-63
2022/03/09 03:07:12;;;;;;;;;;;;;;;7.92;31.86;100090.84;4493397;31;32388;-65
2022/03/09 03:09:42;;;;;;;;;;;;;;;7.98;31.67;100091.44;4486081;31;33910;-64
2022/03/09 03:12:14;;;;;;;;;;;;;;;7.62;33.08;100090.81;4488002;31;32785;-64
2022/03/09 03:14:43;;;;;;;;;;;;;;;7.43;33.55;100085.66;4495507;31;33782;-62
2022/03/09 03:17:13;;;;;;;;;;;;;;;7.34;33.13;100080.84;4497946;31;33535;-62
2022/03/09 03:19:44;;;;;;;;;;;;;;;6.94;34.80;100072.41;4491595;31;33114;-64
2022/03/09 03:22:12;;;;;;;;;;;;;;;6.66;35.29;100070.38;4493345;31;34200;-64
2022/03/09 03:24:40;;;;;;;;;;;;;;;7.38;34.05;100065.56;4482828;31;34217;-63
2022/03/09 03:27:09;;;;;;;;;;;;;;;7.88;32.99;100073.31;4484606;31;34291;-62
2022/03/09 03:29:38;;;;;;;;;;;;;;;8.24;32.34;100072.09;4491241;31;33776;-61
2022/03/09 03:32:10;;;;;;;;;;;;;;;8.24;31.69;100076.56;4482268;31;33875;-61
2022/03/09 03:34:39;;;;;;;;;;;;;;;7.92;33.13;100074.00;4487131;31;33025;-62
2022/03/09 03:37:08;;;;;;;;;;;;;;;8.01;32.93;100064.59;4481081;31;33937;-62
2022/03/09 03:39:37;;;;;;;;;;;;;;;8.37;32.27;100066.88;4493681;31;33992;-61
2022/03/09 03:42:06;;;;;;;;;;;;;;;8.53;32.00;100069.50;4490416;31;34375;-61
2022/03/09 03:44:36;;;;;;;;;;;;;;;8.55;32.16;100076.47;4484204;31;34085;-62
2022/03/09 03:47:05;;;;;;;;;;;;;;;8.71;31.43;100079.06;4489613;31;34361;-62
2022/03/09 03:49:36;;;;;;;;;;;;;;;8.45;32.12;100077.97;4483992;31;33335;-63
2022/03/09 03:52:05;;;;;;;;;;;;;;;8.67;31.57;100071.31;4488521;31;34234;-62
2022/03/09 03:54:34;;;;;;;;;;;;;;;8.84;30.68;100073.81;4482899;31;33365;-62
2022/03/09 03:57:03;;;;;;;;;;;;;;;8.84;30.46;100088.00;4490154;31;33185;-62
2022/03/09 03:59:34;;;;;;;;;;;;;;;8.25;31.66;100091.59;4483347;31;32845;-63
2022/03/09 04:02:02;;;;;;;;;;;;;;;8.13;31.94;100082.56;4497081;31;33010;-61
2022/03/09 04:04:33;;;;;;;;;;;;;;;8.66;30.97;100086.47;4481744;31;34325;-62
2022/03/09 04:07:02;;;;;;;;;;;;;;;8.65;30.74;100081.25;4491673;31;32142;-62
2022/03/09 04:09:31;;;;;;;;;;;;;;;8.40;31.30;100085.38;4481663;31;33926;-61
2022/03/09 04:12:04;;;;;;;;;;;;;;;8.57;30.46;100085.25;4482535;31;34131;-62
2022/03/09 04:14:35;;;;;;;;;;;;;;;7.96;33.03;100078.22;4481692;31;32467;-61
2022/03/09 04:17:04;;;;;;;;;;;;;;;8.47;31.01;100081.41;4486481;31;33363;-61
2022/03/09 04:19:33;;;;;;;;;;;;;;;8.49;32.18;100073.31;4481781;31;32971;-63
2022/03/09 04:22:06;;;;;;;;;;;;;;;8.64;30.84;100064.37;4488123;31;34431;-61
2022/03/09 04:24:36;;;;;;;;;;;;;;;8.49;31.33;100054.66;4489294;31;32496;-61
2022/03/09 04:27:07;;;;;;;;;;;;;;;8.29;32.10;100058.50;4483302;31;34058;-62
2022/03/09 04:29:35;;;;;;;;;;;;;;;7.60;33.48;100073.19;4483581;31;34287;-62
2022/03/09 04:32:04;;;;;;;;;;;;;;;8.34;32.21;100067.91;4481425;32;34284;-62
2022/03/09 04:34:33;;;;;;;;;;;;;;;8.66;31.35;100072.28;4491180;31;32735;-63
2022/03/09 04:37:02;;;;;;;;;;;;;;;8.56;31.11;100075.50;4483407;31;32070;-62
2022/03/09 04:39:31;;;;;;;;;;;;;;;8.33;32.32;100078.69;4484241;31;32543;-63
2022/03/09 04:41:59;;;;;;;;;;;;;;;8.06;32.71;100076.72;4494264;31;34595;-61
2022/03/09 04:44:29;;;;;;;;;;;;;;;8.46;31.62;100085.03;4477053;31;34382;-62
2022/03/09 04:46:59;;;;;;;;;;;;;;;8.83;30.81;100082.78;4483990;31;33657;-61
2022/03/09 04:49:28;;;;;;;;;;;;;;;8.91;30.31;100074.28;4486294;31;32857;-63
2022/03/09 04:51:57;;;;;;;;;;;;;;;8.28;32.18;100068.31;4481975;32;35231;-60
2022/03/09 04:54:26;;;;;;;;;;;;;;;8.28;32.46;100072.75;4485399;31;34001;-63
2022/03/09 04:56:55;;;;;;;;;;;;;;;8.24;32.19;100084.56;4486758;31;32043;-61
2022/03/09 04:59:23;;;;;;;;;;;;;;;8.36;32.15;100090.03;4482421;31;32970;-61
2022/03/09 05:01:50;;;;;;;;;;;;;;;8.31;32.09;100091.25;4492368;31;35547;-61
2022/03/09 05:04:19;;;;;;;;;;;;;;;8.84;30.64;100081.81;4486625;31;32913;-61
2022/03/09 05:06:48;;;;;;;;;;;;;;;8.40;32.00;100077.37;4486428;31;34472;-61
2022/03/09 05:09:16;;;;;;;;;;;;;;;8.57;31.50;100069.25;4487959;31;33176;-61
2022/03/09 05:11:45;;;;;;;;;;;;;;;8.67;30.99;100063.31;4483701;31;36010;-61
2022/03/09 05:14:13;;;;;;;;;;;;;;;8.80;30.52;100066.97;4488578;31;34209;-64
2022/03/09 05:16:41;;;;;;;;;;;;;;;8.60;31.73;100061.03;4493642;31;34505;-62
2022/03/09 05:19:10;;;;;;;;;;;;;;;8.63;31.44;100062.62;4483895;31;35206;-61
2022/03/09 05:21:39;;;;;;;;;;;;;;;8.71;31.44;100064.84;4484246;31;34244;-61
2022/03/09 05:24:28;;;;;;;;;;;;;;;8.78;31.56;100066.19;4491547;31;35050;-61
2022/03/09 05:26:56;;;;;;;;;;;;;;;8.83;31.24;100067.63;4487090;31;33189;-61
2022/03/09 05:29:25;;;;;;;;;;;;;;;8.67;31.39;100076.66;4483735;31;34161;-63
2022/03/09 05:31:54;;;;;;;;;;;;;;;8.62;31.57;100072.47;4489746;31;34161;-61
2022/03/09 05:34:23;;;;;;;;;;;;;;;8.76;30.85;100078.75;4484471;31;34113;-61
2022/03/09 05:36:51;;;;;;;;;;;;;;;8.43;32.11;100079.03;4483107;31;31995;-61
2022/03/09 05:39:19;;;;;;;;;;;;;;;8.84;31.15;100077.34;4486782;31;33886;-61
2022/03/09 05:41:47;;;;;;;;;;;;;;;8.67;31.72;100076.66;4484306;31;34343;-61
2022/03/09 05:44:15;;;;;;;;;;;;;;;9.06;31.24;100084.00;4486208;31;34323;-64
2022/03/09 05:46:50;;;;;;;;;;;;;;;9.19;30.75;100081.41;4485200;31;32215;-62
2022/03/09 05:49:20;;;;;;;;;;;;;;;9.13;31.34;100087.16;4484894;31;32926;-62
2022/03/09 05:51:52;;;;;;;;;;;;;;;8.80;31.12;100081.16;4486676;31;33598;-62
2022/03/09 05:54:22;;;;;;;;;;;;;;;9.00;31.49;100093.25;4484365;31;35210;-62
2022/03/09 05:56:51;;;;;;;;;;;;;;;8.35;32.79;100104.31;4488433;31;34237;-63
2022/03/09 05:59:20;;;;;;;;;;;;;;;8.83;30.69;100109.47;4486384;31;32954;-62
2022/03/09 06:01:49;;;;;;;;;;;;;;;8.96;30.44;100120.25;4488349;31;34544;-61
2022/03/09 06:04:18;;;;;;;;;;;;;;;9.05;30.41;100125.00;4483193;31;33937;-61
2022/03/09 06:06:48;;;;;;;;;;;;;;;8.81;30.66;100130.06;4482869;31;33239;-62
2022/03/09 06:09:18;;;;;;;;;;;;;;;8.61;31.41;100137.47;4486676;31;33008;-63
2022/03/09 06:11:50;;;;;;;;;;;;;;;9.08;30.14;100148.84;4491088;31;34333;-61
2022/03/09 06:14:19;;;;;;;;;;;;;;;9.00;30.46;100153.81;4486404;31;33670;-64
2022/03/09 06:16:49;;;;;;;;;;;;;;;8.89;30.63;100149.09;4482104;31;33080;-61
2022/03/09 06:19:18;;;;;;;;;;;;;;;9.08;30.33;100149.72;4484899;31;33032;-63
2022/03/09 06:21:49;;;;;;;;;;;;;;;9.48;29.58;100147.19;4486663;31;33965;-61
2022/03/09 06:24:19;;;;;;;;;;;;;;;9.63;29.34;100148.03;4492045;31;34914;-61
2022/03/09 06:26:48;;;;;;;;;;;;;;;9.37;30.16;100154.16;4490945;31;33513;-63
2022/03/09 06:29:17;;;;;;;;;;;;;;;9.52;29.51;100153.19;4490853;31;34065;-61
2022/03/09 06:31:53;;;;;;;;;;;;;;;9.27;30.24;100144.06;4488697;31;34720;-62
2022/03/09 06:34:25;;;;;;;;;;;;;;;9.37;30.77;100138.13;4488906;31;33299;-64
2022/03/09 06:36:54;;;;;;;;;;;;;;;9.31;31.02;100144.75;4485000;31;34085;-61
2022/03/09 06:39:25;;;;;;;;;;;;;;;9.16;30.45;100146.56;4484116;31;35247;-62
2022/03/09 06:41:54;;;;;;;;;;;;;;;9.02;30.61;100150.09;4482697;31;34578;-62
2022/03/09 06:44:23;;;;;;;;;;;;;;;9.10;30.62;100153.13;4484793;31;33751;-61
2022/03/09 06:46:51;;;;;;;;;;;;;;;8.81;31.69;100152.25;4488406;31;34256;-62
2022/03/09 06:49:19;;;;;;;;;;;;;;;9.20;30.66;100141.87;4491741;31;31676;-62
2022/03/09 06:51:48;;;;;;;;;;;;;;;9.19;30.71;100149.03;4489407;31;34529;-64
2022/03/09 06:54:18;;;;;;;;;;;;;;;9.08;31.14;100147.06;4482720;31;34346;-62
2022/03/09 06:56:47;;;;;;;;;;;;;;;9.22;30.66;100139.97;4493375;31;32869;-62
2022/03/09 06:59:16;;;;;;;;;;;;;;;8.41;32.21;100148.47;4487942;31;34131;-62
2022/03/09 07:01:45;;;;;;;;;;;;;;;8.78;31.53;100155.13;4488999;31;35245;-61
2022/03/09 07:04:15;;;;;;;;;;;;;;;8.78;31.59;100156.94;4484228;31;34303;-64
2022/03/09 07:06:44;;;;;;;;;;;;;;;8.73;31.57;100165.22;4493887;31;31986;-63
2022/03/09 07:09:12;;;;;;;;;;;;;;;8.84;31.47;100172.56;4489094;31;34114;-61
2022/03/09 07:11:45;;;;;;;;;;;;;;;8.84;31.77;100164.56;4484090;31;33162;-62
2022/03/09 07:14:22;;;;;;;;;;;;;;;8.71;32.13;100166.25;4486691;31;33197;-62
2022/03/09 07:16:53;;;;;;;;;;;;;;;8.72;31.90;100165.31;4483661;31;33595;-61
2022/03/09 07:19:21;;;;;;;;;;;;;;;8.81;31.85;100165.59;4482952;31;33783;-63
2022/03/09 07:21:49;;;;;;;;;;;;;;;8.75;33.50;100170.47;4487609;31;34157;-61
2022/03/09 07:24:18;;;;;;;;;;;;;;;8.79;32.29;100183.50;4486805;31;34000;-61
2022/03/09 07:26:46;;;;;;;;;;;;;;;9.05;32.13;100183.72;4482409;31;32321;-64
2022/03/09 07:29:17;;;;;;;;;;;;;;;8.89;32.14;100193.63;4484674;31;32795;-62
2022/03/09 07:31:45;;;;;;;;;;;;;;;9.03;31.70;100199.00;4490809;31;33422;-65
2022/03/09 07:34:15;;;;;;;;;;;;;;;9.13;32.14;100199.31;4486219;31;33828;-62
2022/03/09 07:36:44;;;;;;;;;;;;;;;8.83;32.07;100192.22;4490937;31;33170;-61
2022/03/09 07:39:14;;;;;;;;;;;;;;;9.08;31.82;100192.44;4485707;31;34123;-62
2022/03/09 07:41:44;;;;;;;;;;;;;;;9.22;31.68;100185.38;4483004;31;34607;-62
2022/03/09 07:44:15;;;;;;;;;;;;;;;9.76;30.57;100167.66;4487358;31;34199;-62
2022/03/09 07:46:44;;;;;;;;;;;;;;;9.53;31.28;100150.44;4488458;31;34272;-62
2022/03/09 07:49:14;;;;;;;;;;;;;;;9.30;31.98;100141.19;4489415;31;32810;-61
2022/03/09 07:51:42;;;;;;;;;;;;;;;9.33;31.63;100145.50;4491167;31;34439;-62
2022/03/09 07:54:12;;;;;;;;;;;;;;;8.97;33.50;100145.97;4489516;31;32965;-61
2022/03/09 07:56:43;;;;;;;;;;;;;;;9.44;31.81;100156.38;4485107;31;33481;-63
2022/03/09 07:59:12;;;;;;;;;;;;;;;9.20;32.40;100156.09;4487069;31;35198;-62
2022/03/09 08:01:43;;;;;;;;;;;;;;;9.75;31.35;100163.25;4486341;31;33395;-62
2022/03/09 08:04:13;;;;;;;;;;;;;;;9.79;31.32;100161.25;4484667;31;34446;-63
2022/03/09 08:06:43;;;;;;;;;;;;;;;9.61;31.86;100146.41;4496158;31;34191;-62
2022/03/09 08:09:12;;;;;;;;;;;;;;;9.58;31.82;100147.47;4488239;31;33035;-61
2022/03/09 08:11:44;;;;;;;;;;;;;;;9.74;32.16;100144.66;4489182;31;33030;-62
2022/03/09 08:14:12;;;;;;;;;;;;;;;8.89;33.91;100151.78;4490889;31;34185;-62
2022/03/09 08:16:40;;;;;;;;;;;;;;;8.70;33.63;100146.72;4482940;31;34589;-62
2022/03/09 08:19:10;;;;;;;;;;;;;;;9.52;32.38;100151.38;4485534;31;34248;-63
2022/03/09 08:21:38;;;;;;;;;;;;;;;9.61;31.94;100143.75;4483137;31;35447;-61
2022/03/09 08:24:07;;;;;;;;;;;;;;;9.69;32.19;100152.09;4486315;31;34298;-63
2022/03/09 08:26:35;;;;;;;;;;;;;;;9.80;32.69;100141.59;4485870;31;31075;-62
2022/03/09 08:29:04;;;;;;;;;;;;;;;10.10;31.94;100144.06;4483720;31;34124;-63
2022/03/09 08:31:32;;;;;;;;;;;;;;;9.79;32.98;100135.37;4485946;31;34140;-63
2022/03/09 08:34:03;;;;;;;;;;;;;;;10.31;31.90;100130.25;4482570;31;34596;-63
2022/03/09 08:36:31;;;;;;;;;;;;;;;9.28;33.25;100129.75;4482305;31;32864;-63
2022/03/09 08:39:01;;;;;;;;;;;;;;;9.75;33.34;100141.03;4484611;31;35196;-63
2022/03/09 08:41:30;;;;;;;;;;;;;;;10.23;31.83;100133.38;4482914;31;34336;-62
2022/03/09 08:43:59;;;;;;;;;;;;;;;9.91;31.93;100124.84;4488815;31;33051;-64
2022/03/09 08:46:28;;;;;;;;;;;;;;;10.03;31.93;100126.69;4491808;31;34089;-64
2022/03/09 08:48:57;;;;;;;;;;;;;;;10.60;30.89;100128.25;4483550;31;32759;-64
2022/03/09 08:51:25;;;;;;;;;;;;;;;10.44;32.35;100131.13;4485060;31;33978;-63
2022/03/09 08:53:54;;;;;;;;;;;;;;;11.35;30.26;100126.50;4483276;31;33401;-64
2022/03/09 08:56:25;;;;;;;;;;;;;;;11.48;30.23;100129.16;4489344;31;33422;-64
2022/03/09 08:58:55;;;;;;;;;;;;;;;11.75;29.67;100114.69;4489397;31;32974;-63
2022/03/09 09:01:23;;;;;;;;;;;;;;;11.28;30.36;100114.50;4488758;31;34478;-62
2022/03/09 09:04:11;;;;;;;;;;;;;;;11.33;30.45;100114.16;4490143;31;34158;-63
2022/03/09 09:06:41;;;;;;;;;;;;;;;11.26;30.83;100113.75;4493485;31;31988;-63
2022/03/09 09:09:10;;;;;;;;;;;;;;;11.47;29.79;100103.31;4488509;31;33961;-63
2022/03/09 09:11:38;;;;;;;;;;;;;;;11.23;30.69;100100.56;4487127;31;34883;-63
2022/03/09 09:14:06;;;;;;;;;;;;;;;10.64;31.71;100108.34;4484223;31;35155;-63
2022/03/09 09:16:35;;;;;;;;;;;;;;;10.83;30.94;100111.44;4484288;31;34641;-63
2022/03/09 09:19:04;;;;;;;;;;;;;;;11.36;30.17;100105.91;4482579;31;34117;-65
2022/03/09 09:21:32;;;;;;;;;;;;;;;10.89;31.13;100105.66;4485250;31;34237;-62
2022/03/09 09:24:01;;;;;;;;;;;;;;;10.98;32.02;100103.28;4482464;31;33190;-66
2022/03/09 09:26:29;;;;;;;;;;;;;;;11.21;30.72;100090.97;4489697;31;34084;-62
2022/03/09 09:29:17;;;;;;;;;;;;;;;10.03;33.31;100098.13;4485619;31;34045;-65
2022/03/09 09:31:47;;;;;;;;;;;;;;;10.65;32.22;100091.31;4494634;31;35493;-63
2022/03/09 09:34:15;;;;;;;;;;;;;;;10.90;31.68;100093.12;4493712;31;34233;-62
2022/03/09 09:36:47;;;;;;;;;;;;;;;10.62;32.20;100088.84;4497611;31;33374;-62
2022/03/09 09:39:16;;;;;;;;;;;;;;;10.71;32.43;100085.53;4491055;31;34067;-62
2022/03/09 09:41:46;;;;;;;;;;;;;;;10.90;32.79;100077.06;4485812;31;34800;-66
2022/03/09 09:44:17;;;;;;;;;;;;;;;11.59;31.81;100080.13;4484670;31;34193;-63
2022/03/09 09:46:46;;;;;;;;;;;;;;;11.73;31.67;100088.00;4490957;31;34733;-63
2022/03/09 09:49:15;;;;;;;;;;;;;;;11.66;30.65;100082.22;4492312;31;34229;-65
2022/03/09 09:51:44;;;;;;;;;;;;;;;11.66;30.82;100092.97;4488320;31;34943;-62
2022/03/09 09:54:14;;;;;;;;;;;;;;;12.08;30.94;100088.06;4491011;31;33908;-63
2022/03/09 09:56:42;;;;;;;;;;;;;;;12.56;29.73;100097.87;4488775;31;34453;-62
2022/03/09 09:59:10;;;;;;;;;;;;;;;12.85;29.45;100089.38;4484703;31;33627;-63
2022/03/09 10:01:41;;;;;;;;;;;;;;;13.02;29.09;100097.78;4492189;31;34336;-64
2022/03/09 10:04:10;;;;;;;;;;;;;;;13.38;29.25;100087.78;4495439;31;32698;-63
2022/03/09 10:06:39;;;;;;;;;;;;;;;13.75;28.50;100084.78;4490404;31;33202;-64
2022/03/09 10:09:07;;;;;;;;;;;;;;;13.60;28.61;100080.66;4488607;31;34293;-63
2022/03/09 10:11:51;;;;;;;;;;;;;;;13.52;27.52;100076.78;4484400;31;34102;-64
2022/03/09 10:14:39;;;;;;;;;;;;;;;14.53;27.26;100085.44;4490947;31;35174;-63
2022/03/09 10:17:14;;;;;;;;;;;;;;;13.82;27.32;100079.75;4485383;31;32355;-63
2022/03/09 10:19:48;;;;;;;;;;;;;;;14.29;27.19;100080.28;4484354;31;36299;-63
2022/03/09 10:22:24;;;;;;;;;;;;;;;14.32;26.87;100071.97;4488968;31;34029;-65
2022/03/09 10:25:12;;;;;;;;;;;;;;;14.80;26.39;100085.75;4484556;31;33960;-63
2022/03/09 10:27:41;;;;;;;;;;;;;;;15.09;26.03;100077.81;4482472;31;33120;-63
2022/03/09 10:30:10;;;;;;;;;;;;;;;15.18;26.35;100075.28;4490546;31;35720;-63
2022/03/09 10:32:46;;;;;;;;;;;;;;;14.98;26.22;100066.25;4484302;31;34296;-63
2022/03/09 10:35:16;;;;;;;;;;;;;;;14.62;26.65;100061.25;4484429;31;34331;-62
2022/03/09 10:37:47;;;;;;;;;;;;;;;15.24;26.13;100058.56;4480532;31;35044;-65
2022/03/09 10:40:19;;;;;;;;;;;;;;;15.42;26.32;100056.06;4481543;31;34127;-66
2022/03/09 10:42:48;;;;;;;;;;;;;;;15.24;26.50;100042.38;4482358;31;33394;-63
2022/03/09 10:45:17;;;;;;;;;;;;;;;15.32;26.57;100046.09;4490086;31;35252;-64
2022/03/09 10:47:46;;;;;;;;;;;;;;;15.10;26.71;100039.06;4482468;31;33288;-63
2022/03/09 10:50:19;;;;;;;;;;;;;;;15.02;27.49;100029.94;4482516;31;32976;-63
2022/03/09 10:52:58;;;;;;;;;;;;;;;15.86;26.34;100027.75;4486031;31;35594;-63
2022/03/09 10:55:32;;;;;;;;;;;;;;;15.98;26.10;100025.75;4486732;31;33941;-64
2022/03/09 10:58:11;;;;;;;;;;;;;;;15.65;26.03;100024.28;4492349;31;33054;-63
2022/03/09 11:00:50;;;;;;;;;;;;;;;16.05;25.50;100025.06;4481818;31;33947;-63
2022/03/09 11:03:23;;;;;;;;;;;;;;;15.82;26.40;100021.78;4485668;31;34076;-63
2022/03/09 11:05:54;;;;;;;;;;;;;;;16.53;25.02;100024.13;4485651;32;33469;-63
2022/03/09 11:08:36;;;;;;;;;;;;;;;15.72;25.95;100018.22;4490875;31;33602;-63
2022/03/09 11:11:14;;;;;;;;;;;;;;;15.30;26.69;100017.56;4492916;31;32825;-63
2022/03/09 11:13:45;;;;;;;;;;;;;;;15.45;26.79;100018.03;4494638;31;33081;-63
2022/03/09 11:16:19;;;;;;;;;;;;;;;15.35;26.67;100009.91;4485937;31;33982;-63
2022/03/09 11:18:54;;;;;;;;;;;;;;;14.95;27.05;100010.78;4470975;31;32424;-63
2022/03/09 11:21:29;;;;;;;;;;;;;;;15.70;26.29;100014.81;4491146;31;34486;-64
2022/03/09 11:24:10;;;;;;;;;;;;;;;14.93;27.09;100014.59;4494971;31;34425;-63
2022/03/09 11:26:55;;;;;;;;;;;;;;;14.68;27.96;100014.94;4483535;31;34152;-63
2022/03/09 11:29:35;;;;;;;;;;;;;;;15.21;27.02;100013.84;4474769;32;33235;-65
2022/03/09 11:32:14;;;;;;;;;;;;;;;15.69;26.85;99996.91;4486442;31;33942;-62
2022/03/09 11:34:56;;;;;;;;;;;;;;;15.70;26.30;100003.19;4491504;31;34166;-65
2022/03/09 11:37:38;;;;;;;;;;;;;;;15.80;26.82;100001.34;4472269;31;33778;-63
2022/03/09 11:40:18;;;;;;;;;;;;;;;15.74;26.54;100000.06;4487674;31;33399;-64
2022/03/09 11:42:55;;;;;;;;;;;;;;;16.00;26.15;99989.53;4489000;31;35888;-62
2022/03/09 11:45:31;;;;;;;;;;;;;;;15.47;26.92;99995.28;4486808;31;34040;-65
2022/03/09 11:48:09;;;;;;;;;;;;;;;15.52;27.45;99984.94;4484608;31;34397;-64
2022/03/09 11:50:47;;;;;;;;;;;;;;;15.64;26.87;99980.28;4487812;31;32071;-63
2022/03/09 11:53:44;;;;;;;;;;;;;;;16.00;25.73;99977.87;4484420;31;32927;-65
2022/03/09 11:56:25;;;;;;;;;;;;;;;15.82;25.99;99972.34;4484063;31;33609;-65
2022/03/09 11:59:08;;;;;;;;;;;;;;;15.34;26.71;99986.63;4485717;31;32793;-66
2022/03/09 12:02:06;;;;;;;;;;;;;;;15.64;26.77;99980.28;4487677;31;34063;-63
2022/03/09 12:04:52;;;;;;;;;;;;;;;15.67;26.36;99977.34;4495763;31;34443;-63
2022/03/09 12:07:33;;;;;;;;;;;;;;;15.52;27.08;99979.56;4492440;31;32728;-63
2022/03/09 12:10:10;;;;;;;;;;;;;;;15.83;26.39;99963.28;4493927;31;32906;-63
2022/03/09 12:13:10;;;;;;;;;;;;;;;15.00;27.62;99986.13;4485454;31;32902;-63
2022/03/09 12:16:14;;;;;;;;;;;;;;;15.76;26.89;99962.13;4484784;31;34059;-63
2022/03/09 12:19:09;;;;;;;;;;;;;;;15.93;26.83;99960.56;4484941;31;35221;-65
2022/03/09 12:21:50;;;;;;;;;;;;;;;15.52;26.67;99960.66;4483738;31;34581;-67
2022/03/09 12:24:25;;;;;;;;;;;;;;;15.91;26.23;99960.69;4484910;31;33300;-67
2022/03/09 12:27:00;;;;;;;;;;;;;;;15.06;27.52;99967.56;4489857;31;32999;-67
2022/03/09 12:29:31;;;;;;;;;;;;;;;15.96;26.46;99968.38;4489544;31;31845;-66
2022/03/09 12:32:02;;;;;;;;;;;;;;;16.66;24.91;99967.06;4487659;31;35174;-67
2022/03/09 12:34:35;;;;;;;;;;;;;;;16.09;25.32;99968.06;4490250;31;33964;-66
2022/03/09 12:37:10;;;;;;;;;;;;;;;16.08;25.59;99967.19;4486987;31;32392;-61
2022/03/09 12:39:55;;;;;;;;;;;;;;;16.10;25.59;99959.81;4495272;31;34471;-63
2022/03/09 12:42:33;;;;;;;;;;;;;;;16.65;25.46;99962.63;4490064;31;34891;-63
2022/03/09 12:45:12;;;;;;;;;;;;;;;16.80;24.71;99952.22;4485218;31;30951;-63
2022/03/09 12:47:54;;;;;;;;;;;;;;;16.17;25.41;99960.09;4487581;31;33925;-63
2022/03/09 12:50:37;;;;;;;;;;;;;;;16.62;25.92;99959.38;4489193;31;34337;-64
2022/03/09 12:53:09;;;;;;;;;;;;;;;16.00;26.17;99951.72;4487373;31;35052;-64
2022/03/09 12:55:40;;;;;;;;;;;;;;;16.57;25.42;99948.19;4486806;31;33390;-64
2022/03/09 12:58:23;;;;;;;;;;;;;;;16.92;24.84;99951.03;4491085;31;34116;-64
2022/03/09 13:01:03;;;;;;;;;;;;;;;16.02;25.61;99957.00;4489678;31;34507;-63
2022/03/09 13:03:36;;;;;;;;;;;;;;;17.13;24.09;99952.63;4483911;31;34291;-66
2022/03/09 13:06:29;;;;;;;;;;;;;;;16.63;25.22;99959.25;4484255;31;34281;-64
2022/03/09 13:09:21;;;;;;;;;;;;;;;16.64;24.53;99957.41;4482114;31;35123;-64
2022/03/09 13:11:56;;;;;;;;;;;;;;;16.46;24.94;99949.19;4483760;31;34174;-63